Council Hill, Oklahoma
Current Conditions -  °F | °C
As of 3:53 PM on Sunday 21 Dec 2014 (Local Time) from KMKO Reporting Station
Overcast Overcast  
Wind Chill:   Ceiling: 2900
Heat Index:   Visibility: 10mi
Dew Point:   Wind: 10mph
Humidity: 71%   Direction: 140°SE
Pressure: 29.88"   Gusts: NA
Location:  35.56°N, 95.65°W
Report Text: KMKO 212153Z AUTO 14009KT 10SM OVC029 09/04 A2988 RMK AO2 SLP119 T00940044
Loading
Personal Weather Stations






























Interactive Weather Map New forecast layout! Learn more

10-Day Weather Forecast

Advertisements
Track Severe Weather on mobile